createdAt,value
2018-10-05T00:01:57.491Z,6.84
2018-10-05T00:04:26.472Z,6.89
2018-10-05T00:06:54.974Z,1.84
2018-10-05T00:09:23.483Z,6.73
2018-10-05T00:11:51.952Z,6.69
2018-10-05T00:14:20.409Z,6.91
2018-10-05T00:16:48.953Z,6.82
2018-10-05T00:19:17.484Z,6.54
2018-10-05T00:21:45.920Z,6.60
2018-10-05T00:24:14.356Z,6.47
2018-10-05T00:26:42.820Z,6.56
2018-10-05T00:29:11.268Z,6.49
2018-10-05T00:31:39.747Z,6.39
2018-10-05T00:34:08.293Z,6.44
2018-10-05T00:36:36.751Z,6.25
2018-10-05T00:39:06.977Z,6.21
2018-10-05T00:41:35.473Z,6.53
2018-10-05T00:44:03.948Z,6.63
2018-10-05T00:46:32.391Z,6.59
2018-10-05T00:49:00.880Z,6.74
2018-10-05T00:51:29.958Z,6.45
2018-10-05T00:53:58.383Z,6.52
2018-10-05T00:56:26.903Z,6.55
2018-10-05T00:58:55.351Z,6.17
2018-10-05T01:01:23.832Z,6.36
2018-10-05T01:03:52.283Z,6.33
2018-10-05T01:06:20.761Z,6.45
2018-10-05T01:08:49.199Z,6.50
2018-10-05T01:11:17.840Z,6.53
2018-10-05T01:13:46.340Z,6.25
2018-10-05T01:16:14.809Z,6.20
2018-10-05T01:18:43.204Z,6.00
2018-10-05T01:21:11.648Z,6.05
2018-10-05T01:23:40.072Z,6.12
2018-10-05T01:26:08.640Z,5.78
2018-10-05T01:28:37.560Z,5.88
2018-10-05T01:31:05.987Z,5.99
2018-10-05T01:33:34.436Z,6.00
2018-10-05T01:36:02.944Z,6.01
2018-10-05T01:38:31.403Z,6.07
2018-10-05T01:40:59.879Z,6.05
2018-10-05T01:43:29.497Z,6.03
2018-10-05T01:45:57.966Z,5.94
2018-10-05T01:48:26.454Z,5.88
2018-10-05T01:50:54.943Z,5.88
2018-10-05T01:53:24.562Z,5.86
2018-10-05T01:55:53.114Z,5.78
2018-10-05T01:58:21.635Z,5.75
2018-10-05T02:00:50.114Z,5.71
2018-10-05T02:03:18.619Z,5.67
2018-10-05T02:05:47.131Z,5.74
2018-10-05T02:08:15.606Z,5.70
2018-10-05T02:10:44.083Z,5.66
2018-10-05T02:13:12.621Z,5.61
2018-10-05T02:15:41.168Z,5.39
2018-10-05T02:18:09.910Z,5.49
2018-10-05T02:20:40.308Z,5.53
2018-10-05T02:23:08.764Z,5.45
2018-10-05T02:25:37.570Z,5.44
2018-10-05T02:28:06.112Z,5.52
2018-10-05T02:30:34.572Z,5.58
2018-10-05T02:33:03.182Z,5.49
2018-10-05T02:35:32.575Z,5.47
2018-10-05T02:38:01.098Z,5.47
2018-10-05T02:40:30.073Z,5.46
2018-10-05T02:42:58.569Z,5.41
2018-10-05T02:45:28.024Z,4.98
2018-10-05T02:47:56.515Z,5.00
2018-10-05T02:50:24.973Z,5.14
2018-10-05T02:52:53.759Z,5.20
2018-10-05T02:55:22.201Z,5.19
2018-10-05T02:57:50.831Z,5.19
2018-10-05T03:00:30.579Z,5.19
2018-10-05T03:02:59.052Z,5.18
2018-10-05T03:05:27.780Z,5.05
2018-10-05T03:07:56.261Z,4.99
2018-10-05T03:10:25.398Z,4.96
2018-10-05T03:12:53.901Z,4.97
2018-10-05T03:15:22.406Z,5.06
2018-10-05T03:17:50.864Z,4.91
2018-10-05T03:20:19.335Z,5.03
2018-10-05T03:22:49.032Z,5.15
2018-10-05T03:25:17.431Z,4.79
2018-10-05T03:27:46.321Z,4.84
2018-10-05T03:30:14.760Z,5.01
2018-10-05T03:32:43.234Z,4.77
2018-10-05T03:35:12.177Z,4.66
2018-10-05T03:37:40.651Z,4.74
2018-10-05T03:40:09.868Z,4.73
2018-10-05T03:42:38.948Z,4.78
2018-10-05T03:45:08.717Z,4.78
2018-10-05T03:47:37.143Z,4.83
2018-10-05T03:50:05.883Z,4.72
2018-10-05T03:52:34.357Z,4.64
2018-10-05T03:55:03.392Z,4.74
2018-10-05T03:57:31.863Z,4.75
2018-10-05T04:00:00.567Z,4.90
2018-10-05T04:02:29.183Z,4.87
2018-10-05T04:04:57.834Z,4.80
2018-10-05T04:07:26.443Z,4.88
2018-10-05T04:09:55.956Z,4.41
2018-10-05T04:12:24.875Z,4.79
2018-10-05T04:14:53.731Z,4.79
2018-10-05T04:17:22.386Z,4.79
2018-10-05T04:19:50.843Z,4.75
2018-10-05T04:22:24.937Z,4.78
2018-10-05T04:24:53.689Z,4.71
2018-10-05T04:27:22.164Z,4.74
2018-10-05T04:29:50.744Z,4.64
2018-10-05T04:32:19.135Z,4.34
2018-10-05T04:34:48.625Z,4.40
2018-10-05T04:37:17.127Z,4.48
2018-10-05T04:39:47.235Z,4.47
2018-10-05T04:42:16.295Z,4.51
2018-10-05T04:44:44.851Z,4.38
2018-10-05T04:47:13.578Z,4.58
2018-10-05T04:49:42.157Z,4.77
2018-10-05T04:52:11.236Z,4.84
2018-10-05T04:54:39.758Z,4.67
2018-10-05T04:57:08.252Z,4.18
2018-10-05T04:59:36.771Z,4.34
2018-10-05T05:02:05.253Z,4.39
2018-10-05T05:04:33.765Z,4.47
2018-10-05T05:07:02.304Z,4.25
2018-10-05T05:09:30.822Z,4.38
2018-10-05T05:11:59.504Z,4.32
2018-10-05T05:14:28.192Z,4.21
2018-10-05T05:16:57.295Z,4.38
2018-10-05T05:19:25.842Z,4.41
2018-10-05T05:21:54.369Z,4.51
2018-10-05T05:24:22.819Z,4.48
2018-10-05T05:26:51.307Z,4.47
2018-10-05T05:29:19.767Z,4.33
2018-10-05T05:31:49.571Z,4.31
2018-10-05T05:34:18.066Z,4.35
2018-10-05T05:36:46.474Z,4.45
2018-10-05T05:39:15.019Z,4.43
2018-10-05T05:41:43.431Z,4.37
2018-10-05T05:44:11.944Z,4.34
2018-10-05T05:46:40.463Z,4.32
2018-10-05T05:49:09.712Z,4.42
2018-10-05T05:51:38.130Z,4.44
2018-10-05T05:54:06.788Z,4.46
2018-10-05T05:56:35.228Z,4.35
2018-10-05T05:59:03.849Z,4.35
2018-10-05T06:01:33.435Z,4.44
2018-10-05T06:04:01.892Z,4.61
2018-10-05T06:06:30.672Z,4.59
2018-10-05T06:08:59.242Z,4.60
2018-10-05T06:11:28.223Z,4.55
2018-10-05T06:13:56.897Z,4.55
2018-10-05T06:16:25.529Z,4.64
2018-10-05T06:18:54.056Z,4.72
2018-10-05T06:21:22.617Z,4.75
2018-10-05T06:23:51.029Z,4.87
2018-10-05T06:26:19.494Z,5.00
2018-10-05T06:28:48.143Z,5.07
2018-10-05T06:31:16.699Z,5.15
2018-10-05T06:33:45.100Z,5.27
2018-10-05T06:36:13.688Z,5.14
2018-10-05T06:38:42.163Z,4.97
2018-10-05T06:41:10.611Z,5.01
2018-10-05T06:43:39.043Z,5.40
2018-10-05T06:46:07.813Z,5.68
2018-10-05T06:48:36.286Z,6.06
2018-10-05T06:51:04.732Z,6.49
2018-10-05T06:53:33.188Z,6.96
2018-10-05T06:56:01.692Z,7.45
2018-10-05T06:58:31.182Z,7.79
2018-10-05T07:00:59.620Z,8.13
2018-10-05T07:03:28.096Z,8.40
2018-10-05T07:05:56.567Z,8.47
2018-10-05T07:08:24.990Z,8.00
2018-10-05T07:10:53.475Z,8.14
2018-10-05T07:13:21.883Z,8.59
2018-10-05T07:15:51.802Z,8.32
2018-10-05T07:18:23.840Z,9.48
2018-10-05T07:20:52.332Z,9.05
2018-10-05T07:23:21.297Z,8.32
2018-10-05T07:25:49.950Z,8.54
2018-10-05T07:28:18.450Z,8.74
2018-10-05T07:30:49.352Z,8.94
2018-10-05T07:33:18.114Z,9.32
2018-10-05T07:35:46.776Z,9.92
2018-10-05T07:38:15.244Z,10.43
2018-10-05T07:40:43.724Z,10.85
2018-10-05T07:43:12.214Z,10.63
2018-10-05T07:45:40.688Z,11.69
2018-10-05T07:48:10.235Z,11.48
2018-10-05T07:50:38.667Z,11.96
2018-10-05T07:53:07.785Z,12.15
2018-10-05T07:55:36.302Z,11.71
2018-10-05T07:58:04.756Z,11.70
2018-10-05T08:00:33.204Z,11.64
2018-10-05T08:03:01.833Z,11.63
2018-10-05T08:05:30.709Z,11.58
2018-10-05T08:07:59.155Z,11.63
2018-10-05T08:10:27.780Z,11.44
2018-10-05T08:12:56.447Z,11.73
2018-10-05T08:15:24.949Z,11.93
2018-10-05T08:17:53.414Z,12.38
2018-10-05T08:20:23.874Z,12.91
2018-10-05T08:22:52.388Z,13.06
2018-10-05T08:25:20.915Z,13.95
2018-10-05T08:27:49.544Z,13.54
2018-10-05T08:30:17.980Z,14.12
2018-10-05T08:32:47.012Z,14.11
2018-10-05T08:35:15.919Z,14.41
2018-10-05T08:37:44.345Z,15.25
2018-10-05T08:40:12.872Z,15.54
2018-10-05T08:42:41.277Z,15.17
2018-10-05T08:45:09.896Z,15.50
2018-10-05T08:47:38.364Z,15.03
2018-10-05T08:50:06.852Z,16.25
2018-10-05T08:52:35.317Z,16.51
2018-10-05T08:55:03.860Z,17.22
2018-10-05T08:57:32.832Z,17.07
2018-10-05T09:00:01.381Z,16.80
2018-10-05T09:02:30.784Z,17.46
2018-10-05T09:04:59.339Z,17.08
2018-10-05T09:07:27.839Z,17.03
2018-10-05T09:09:56.843Z,17.92
2018-10-05T09:12:25.289Z,17.97
2018-10-05T09:14:54.694Z,18.43
2018-10-05T09:17:23.239Z,18.04
2018-10-05T09:19:51.699Z,18.34
2018-10-05T09:22:20.236Z,18.72
2018-10-05T09:24:49.301Z,18.43
2018-10-05T09:27:17.789Z,19.02
2018-10-05T09:29:46.856Z,19.03
2018-10-05T09:32:15.297Z,19.39
2018-10-05T09:34:43.790Z,19.61
2018-10-05T09:37:12.857Z,19.24
2018-10-05T09:39:41.453Z,19.63
2018-10-05T09:42:11.691Z,20.39
2018-10-05T09:44:40.532Z,20.65
2018-10-05T09:47:09.248Z,20.74
2018-10-05T09:49:37.726Z,20.33
2018-10-05T09:52:06.197Z,20.92
2018-10-05T09:54:35.507Z,20.42
2018-10-05T09:57:04.058Z,20.65
2018-10-05T09:59:32.508Z,20.83
2018-10-05T10:02:06.443Z,20.59
2018-10-05T10:04:35.608Z,20.30
2018-10-05T10:07:04.056Z,21.36
2018-10-05T10:09:32.522Z,21.47
2018-10-05T10:12:00.956Z,20.39
2018-10-05T10:14:29.728Z,20.49
2018-10-05T10:16:58.238Z,20.85
2018-10-05T10:19:26.697Z,21.56
2018-10-05T10:21:55.135Z,19.57
2018-10-05T10:24:23.591Z,21.06
2018-10-05T10:26:52.942Z,22.53
2018-10-05T10:29:21.474Z,22.31
2018-10-05T10:31:50.844Z,20.12
2018-10-05T10:34:19.325Z,20.08
2018-10-05T10:36:47.868Z,20.99
2018-10-05T10:39:16.445Z,21.33
2018-10-05T10:41:44.854Z,21.13
2018-10-05T10:44:13.336Z,22.20
2018-10-05T10:46:41.744Z,21.80
2018-10-05T10:49:10.312Z,21.28
2018-10-05T10:51:38.753Z,22.13
2018-10-05T10:54:07.644Z,22.23
2018-10-05T10:56:36.064Z,22.12
2018-10-05T10:59:04.526Z,23.02
2018-10-05T11:01:33.791Z,22.78
2018-10-05T11:04:02.319Z,23.11
2018-10-05T11:06:30.819Z,23.81
2018-10-05T11:08:59.375Z,23.58
2018-10-05T11:11:27.917Z,23.10
2018-10-05T11:13:56.691Z,23.44
2018-10-05T11:16:25.336Z,23.41
2018-10-05T11:18:53.748Z,23.36
2018-10-05T11:21:22.221Z,23.61
2018-10-05T11:23:51.241Z,22.15
2018-10-05T11:26:19.695Z,23.22
2018-10-05T11:28:48.540Z,23.87
2018-10-05T11:31:17.033Z,22.81
2018-10-05T11:33:45.544Z,23.28
2018-10-05T11:36:14.000Z,24.00
2018-10-05T11:38:42.419Z,23.57
2018-10-05T11:41:10.892Z,22.84
2018-10-05T11:43:39.380Z,23.87
2018-10-05T11:46:08.022Z,24.03
2018-10-05T11:48:36.448Z,24.40
2018-10-05T11:51:05.228Z,24.35
2018-10-05T11:53:33.738Z,23.99
2018-10-05T11:56:02.237Z,23.81
2018-10-05T11:58:31.316Z,23.41
2018-10-05T12:00:59.793Z,24.23
2018-10-05T12:03:28.291Z,23.58
2018-10-05T12:05:56.850Z,24.11
2018-10-05T12:08:25.322Z,24.16
2018-10-05T12:10:53.889Z,23.47
2018-10-05T12:13:22.360Z,24.36
2018-10-05T12:15:51.498Z,24.51
2018-10-05T12:18:19.948Z,24.24
2018-10-05T12:20:48.718Z,24.43
2018-10-05T12:23:17.194Z,24.34
2018-10-05T12:25:45.691Z,24.02
2018-10-05T12:28:14.148Z,23.34
2018-10-05T12:30:42.636Z,23.65
2018-10-05T12:33:11.857Z,24.01
2018-10-05T12:35:41.223Z,24.25
2018-10-05T12:38:11.152Z,24.18
2018-10-05T12:40:39.636Z,24.09
2018-10-05T12:43:08.925Z,24.39
2018-10-05T12:45:39.053Z,24.38
2018-10-05T12:48:07.535Z,24.52
2018-10-05T12:50:36.000Z,24.68
2018-10-05T12:53:04.436Z,24.75
2018-10-05T12:55:33.622Z,24.31
2018-10-05T12:58:02.031Z,24.83
2018-10-05T13:00:30.500Z,24.73
2018-10-05T13:02:58.949Z,24.63
2018-10-05T13:05:27.500Z,24.69
2018-10-05T13:07:55.936Z,23.30
2018-10-05T13:10:24.399Z,23.72
2018-10-05T13:12:52.912Z,23.46
2018-10-05T13:15:21.356Z,23.57
2018-10-05T13:17:49.903Z,23.28
2018-10-05T13:20:18.368Z,22.88
2018-10-05T13:22:46.816Z,22.75
2018-10-05T13:25:15.932Z,22.86
2018-10-05T13:27:44.438Z,22.88
2018-10-05T13:30:12.947Z,22.45
2018-10-05T13:32:41.439Z,22.56
2018-10-05T13:35:10.421Z,22.29
2018-10-05T13:37:39.824Z,22.25
2018-10-05T13:40:09.788Z,22.31
2018-10-05T13:42:38.908Z,22.34
2018-10-05T13:45:07.635Z,22.40
2018-10-05T13:47:36.096Z,22.34
2018-10-05T13:50:04.810Z,22.29
2018-10-05T13:52:33.279Z,22.32
2018-10-05T13:55:01.903Z,22.21
2018-10-05T13:57:30.505Z,22.37
2018-10-05T13:59:59.028Z,22.33
2018-10-05T14:02:27.645Z,22.11
2018-10-05T14:04:57.049Z,22.01
2018-10-05T14:07:26.482Z,22.12
2018-10-05T14:09:55.071Z,22.10
2018-10-05T14:12:23.596Z,22.16
2018-10-05T14:14:52.165Z,22.10
2018-10-05T14:17:20.624Z,21.97
2018-10-05T14:19:49.355Z,22.04
2018-10-05T14:22:17.850Z,21.99
2018-10-05T14:24:46.239Z,21.99
2018-10-05T14:27:14.723Z,22.04
2018-10-05T14:29:43.219Z,21.92
2018-10-05T14:32:12.540Z,21.79
2018-10-05T14:34:41.275Z,21.80
2018-10-05T14:37:10.674Z,21.66
2018-10-05T14:39:39.073Z,21.63
2018-10-05T14:42:07.524Z,21.68
2018-10-05T14:44:35.974Z,21.65
2018-10-05T14:47:04.896Z,21.49
2018-10-05T14:49:33.518Z,21.49
2018-10-05T14:52:02.111Z,21.51
2018-10-05T14:54:36.146Z,21.43
2018-10-05T14:57:04.637Z,21.42
2018-10-05T14:59:33.040Z,21.42
2018-10-05T15:02:01.512Z,21.33
2018-10-05T15:04:30.732Z,21.26
2018-10-05T15:06:59.518Z,21.29
2018-10-05T15:09:29.799Z,21.16
2018-10-05T15:11:58.226Z,21.25
2018-10-05T15:14:26.669Z,21.16
2018-10-05T15:16:55.130Z,21.11
2018-10-05T15:19:23.646Z,21.15
2018-10-05T15:21:52.755Z,21.07
2018-10-05T15:24:21.293Z,20.98
2018-10-05T15:26:49.999Z,21.04
2018-10-05T15:29:18.565Z,20.97
2018-10-05T15:31:47.119Z,20.82
2018-10-05T15:34:15.776Z,20.92
2018-10-05T15:36:44.252Z,20.89
2018-10-05T15:39:13.385Z,20.81
2018-10-05T15:41:41.937Z,20.78
2018-10-05T15:44:11.849Z,20.75
2018-10-05T15:47:18.072Z,20.54
2018-10-05T15:49:46.789Z,20.39
2018-10-05T15:52:15.327Z,20.38
2018-10-05T15:54:44.135Z,20.32
2018-10-05T15:57:13.378Z,20.17
2018-10-05T15:59:42.390Z,20.18
2018-10-05T16:02:11.322Z,20.05
2018-10-05T16:04:39.870Z,19.92
2018-10-05T16:07:08.369Z,19.81
2018-10-05T16:09:36.843Z,19.71
2018-10-05T16:12:05.420Z,19.89
2018-10-05T16:14:34.606Z,19.80
2018-10-05T16:17:03.225Z,19.68
2018-10-05T16:19:33.248Z,19.54
2018-10-05T16:22:03.187Z,19.33
2018-10-05T16:24:36.210Z,19.14
2018-10-05T16:27:04.701Z,18.97
2018-10-05T16:29:33.980Z,18.73
2018-10-05T16:32:03.553Z,18.53
2018-10-05T16:34:32.592Z,18.30
2018-10-05T16:37:01.032Z,18.22
2018-10-05T16:39:32.179Z,18.09
2018-10-05T16:42:01.304Z,17.91
2018-10-05T16:44:29.884Z,17.80
2018-10-05T16:46:58.360Z,17.63
2018-10-05T16:49:27.851Z,17.43
2018-10-05T16:51:57.132Z,17.33
2018-10-05T16:54:26.292Z,17.15
2018-10-05T16:56:55.008Z,16.98
2018-10-05T16:59:23.491Z,16.78
2018-10-05T17:01:52.220Z,16.72
2018-10-05T17:04:20.758Z,16.59
2018-10-05T17:06:49.171Z,16.36
2018-10-05T17:09:17.654Z,16.11
2018-10-05T17:11:46.712Z,16.28
2018-10-05T17:14:15.280Z,16.47
2018-10-05T17:16:43.708Z,16.23
2018-10-05T17:19:13.038Z,16.08
2018-10-05T17:21:41.491Z,15.89
2018-10-05T17:24:09.947Z,15.74
2018-10-05T17:26:38.344Z,15.57
2018-10-05T17:29:06.854Z,15.59
2018-10-05T17:31:35.403Z,15.44
2018-10-05T17:34:03.825Z,15.15
2018-10-05T17:36:32.783Z,14.92
2018-10-05T17:39:01.212Z,14.81
2018-10-05T17:41:29.650Z,14.73
2018-10-05T17:43:58.096Z,14.60
2018-10-05T17:46:26.566Z,14.53
2018-10-05T17:48:55.109Z,14.54
2018-10-05T17:51:23.584Z,14.45
2018-10-05T17:53:53.627Z,14.42
2018-10-05T17:56:22.094Z,14.41
2018-10-05T17:58:50.547Z,14.34
2018-10-05T18:01:19.082Z,14.16
2018-10-05T18:03:47.571Z,13.92
2018-10-05T18:06:16.070Z,13.79
2018-10-05T18:08:44.473Z,13.77
2018-10-05T18:11:13.695Z,13.66
2018-10-05T18:13:42.165Z,13.60
2018-10-05T18:16:11.079Z,13.51
2018-10-05T18:18:39.626Z,13.43
2018-10-05T18:21:08.269Z,13.35
2018-10-05T18:23:36.724Z,13.32
2018-10-05T18:26:05.400Z,13.21
2018-10-05T18:28:33.900Z,13.09
2018-10-05T18:31:03.113Z,13.03
2018-10-05T18:33:31.952Z,13.02
2018-10-05T18:36:00.323Z,13.04
2018-10-05T18:38:28.749Z,12.97
2018-10-05T18:40:57.264Z,12.93
2018-10-05T18:43:25.768Z,12.74
2018-10-05T18:45:54.249Z,12.66
2018-10-05T18:48:22.693Z,12.64
2018-10-05T18:50:52.803Z,12.55
2018-10-05T18:53:21.286Z,12.49
2018-10-05T18:55:50.398Z,12.43
2018-10-05T18:58:18.884Z,12.38
2018-10-05T19:00:48.351Z,12.37
2018-10-05T19:03:16.931Z,12.37
2018-10-05T19:05:45.467Z,12.30
2018-10-05T19:08:14.923Z,12.23
2018-10-05T19:10:43.875Z,12.17
2018-10-05T19:13:13.072Z,12.09
2018-10-05T19:15:41.535Z,12.02
2018-10-05T19:18:10.012Z,12.02
2018-10-05T19:20:38.504Z,12.03
2018-10-05T19:23:06.979Z,12.04
2018-10-05T19:25:35.414Z,11.97
2018-10-05T19:28:04.171Z,11.93
2018-10-05T19:30:32.595Z,11.81
2018-10-05T19:33:01.243Z,11.70
2018-10-05T19:35:29.652Z,11.57
2018-10-05T19:37:58.123Z,11.57
2018-10-05T19:40:27.062Z,11.52
2018-10-05T19:42:55.562Z,11.52
2018-10-05T19:45:24.101Z,11.42
2018-10-05T19:47:52.590Z,11.40
2018-10-05T19:50:20.991Z,11.42
2018-10-05T19:52:49.434Z,11.38
2018-10-05T19:55:17.883Z,11.36
2018-10-05T19:57:46.335Z,11.30
2018-10-05T20:00:15.226Z,11.34
2018-10-05T20:02:43.692Z,11.35
2018-10-05T20:05:12.122Z,11.28
2018-10-05T20:07:40.538Z,11.14
2018-10-05T20:10:08.996Z,11.16
2018-10-05T20:12:37.442Z,11.15
2018-10-05T20:15:05.854Z,11.17
2018-10-05T20:17:34.453Z,11.18
2018-10-05T20:20:02.873Z,11.19
2018-10-05T20:22:31.869Z,11.14
2018-10-05T20:25:00.295Z,11.05
2018-10-05T20:27:28.781Z,10.97
2018-10-05T20:29:57.231Z,10.91
2018-10-05T20:32:25.683Z,10.89
2018-10-05T20:34:54.135Z,10.81
2018-10-05T20:37:22.837Z,10.81
2018-10-05T20:39:51.259Z,10.82
2018-10-05T20:42:19.711Z,10.80
2018-10-05T20:44:48.169Z,10.73
2018-10-05T20:47:16.605Z,10.76
2018-10-05T20:49:45.032Z,10.77
2018-10-05T20:52:13.451Z,10.76
2018-10-05T20:54:42.100Z,10.72
2018-10-05T20:57:10.528Z,10.54
2018-10-05T20:59:39.655Z,10.48
2018-10-05T21:02:08.200Z,10.39
2018-10-05T21:04:36.675Z,10.41
2018-10-05T21:07:05.092Z,10.34
2018-10-05T21:09:33.815Z,10.26
2018-10-05T21:12:02.472Z,10.29
2018-10-05T21:14:30.936Z,10.30
2018-10-05T21:16:59.437Z,10.36
2018-10-05T21:19:27.895Z,10.36
2018-10-05T21:21:56.328Z,10.33
2018-10-05T21:24:24.891Z,10.30
2018-10-05T21:26:54.033Z,10.23
2018-10-05T21:29:22.543Z,10.26
2018-10-05T21:31:51.013Z,10.22
2018-10-05T21:34:19.474Z,10.29
2018-10-05T21:36:47.905Z,10.25
2018-10-05T21:39:17.677Z,10.23
2018-10-05T21:41:46.076Z,10.15
2018-10-05T21:44:14.796Z,10.12
2018-10-05T21:46:43.236Z,10.09
2018-10-05T21:49:11.675Z,10.06
2018-10-05T21:51:40.112Z,10.05
2018-10-05T21:54:08.627Z,10.02
2018-10-05T21:56:37.068Z,9.96
2018-10-05T21:59:06.447Z,9.89
2018-10-05T22:01:34.922Z,9.86
2018-10-05T22:04:03.371Z,9.89
2018-10-05T22:06:32.497Z,9.83
2018-10-05T22:09:01.055Z,9.85
2018-10-05T22:11:29.541Z,9.87
2018-10-05T22:13:57.984Z,9.84
2018-10-05T22:16:26.408Z,9.76
2018-10-05T22:18:56.856Z,9.76
2018-10-05T22:21:25.372Z,9.76
2018-10-05T22:23:54.478Z,9.79
2018-10-05T22:26:22.945Z,9.80
2018-10-05T22:28:51.433Z,9.74
2018-10-05T22:31:19.874Z,9.74
2018-10-05T22:33:48.315Z,9.69
2018-10-05T22:36:16.780Z,9.61
2018-10-05T22:38:45.262Z,9.49
2018-10-05T22:41:13.774Z,9.37
2018-10-05T22:43:42.270Z,9.23
2018-10-05T22:46:10.725Z,9.34
2018-10-05T22:48:39.156Z,9.37
2018-10-05T22:51:07.657Z,9.38
2018-10-05T22:53:36.091Z,9.42
2018-10-05T22:56:04.629Z,9.41
2018-10-05T22:58:33.130Z,9.40
2018-10-05T23:01:01.589Z,9.33
2018-10-05T23:03:31.168Z,9.30
2018-10-05T23:05:59.653Z,9.24
2018-10-05T23:08:28.113Z,9.19
2018-10-05T23:10:56.575Z,9.21
2018-10-05T23:13:25.064Z,9.27
2018-10-05T23:15:54.582Z,9.26
2018-10-05T23:18:23.111Z,9.31
2018-10-05T23:20:51.632Z,9.25
2018-10-05T23:23:20.088Z,9.17
2018-10-05T23:25:48.599Z,9.08
2018-10-05T23:28:17.100Z,9.01
2018-10-05T23:30:45.604Z,9.06
2018-10-05T23:33:15.717Z,9.11
2018-10-05T23:35:44.419Z,9.13
2018-10-05T23:38:13.059Z,9.11
2018-10-05T23:40:41.944Z,9.05
2018-10-05T23:43:10.739Z,8.97
2018-10-05T23:45:39.216Z,9.00
2018-10-05T23:48:07.733Z,8.92
2018-10-05T23:50:36.225Z,8.92
2018-10-05T23:53:04.666Z,8.85
2018-10-05T23:55:34.327Z,8.83
2018-10-05T23:58:03.628Z,8.84
